, LA

(GMT )
Atlantis

Weather History for KATP - February, 2014

Change the Weather History Date:

Thursday, February 6, 2014

  Actual Average Record
Temperature  
Mean Temperature 56 °F -  
Max Temperature 60 °F - - ()
Min Temperature 53 °F - - ()
Degree Days  
Heating Degree Days 8    
Growing Degree Days 6 (Base 50)    
Moisture  
Dew Point 51 °F    
Average Humidity 79    
Maximum Humidity 94    
Minimum Humidity 72    
Precipitation  
Precipitation 0.00 in - - ()
Sea Level Pressure  
Sea Level Pressure 30.23 in    
Wind  
Wind Speed 24 mph (NE)    
Max Wind Speed 34 mph    
Max Gust Speed 40 mph    
Visibility 4 miles    
Events      
Averages and records for this station are not official NWS values.
T = Trace of Precipitation, MM = Missing Value Source: NWS Daily Summary

Daily Weather History Graph

Daily Weather History Graph

Search for Another Location

Airport or City:

Trip Planner

Search our weather history database for the weather conditions in past years. The results will help you decide how hot, cold, wet, or windy it might be!

Date:

Astronomy

Feb. 06, 2014 Rise Set
Actual Time 6:43 AM CST 5:45 PM CST
Civil Twilight 6:19 AM CST 6:09 PM CST
Nautical Twilight 5:51 AM CST 6:37 PM CST
Astronomical Twilight 5:23 AM CST 7:04 PM CST
Moon 11:19 AM CST (2/6) No Moon Set
Length of Visible Light 11h 50m
Length of Day
11h 02m
Waxing Crescent, 49% of the Moon is Illuminated
Feb 6
Waxing Crescent
Feb 6
First Quarter
Feb 14
Full
Feb 22
Last Quarter
Mar 1
New

Hourly Weather History & Observations

Time (CST) Temp. Dew Point Humidity Pressure Visibility Wind Dir Wind Speed Gust Speed Precip Events Conditions
12:15 AM 59.0 °F 51.8 °F 77% 30.21 in 4.0 mi NE 23.0 mph 29.9 mph N/A   Haze
12:35 AM 59.0 °F 51.8 °F 77% 30.21 in 4.0 mi NNE 24.2 mph 29.9 mph N/A   Haze
12:55 AM 59.0 °F 51.8 °F 77% 30.21 in 4.0 mi NNE 25.3 mph - N/A   Haze
1:15 AM 59.0 °F 51.8 °F 77% 30.19 in 4.0 mi NE 26.5 mph - N/A   Haze
1:35 AM 59.0 °F 51.8 °F 77% 30.19 in 4.0 mi NE 25.3 mph - N/A   Haze
1:55 AM 59.0 °F 51.8 °F 77% 30.20 in 3.0 mi NE 23.0 mph - N/A   Haze
2:15 AM 59.0 °F 51.8 °F 77% 30.18 in 4.0 mi NE 25.3 mph - N/A   Haze
2:35 AM 60.8 °F 51.8 °F 72% 30.18 in 4.0 mi NE 23.0 mph - N/A   Haze
2:55 AM 60.8 °F 51.8 °F 72% 30.17 in 4.0 mi ENE 26.5 mph - N/A   Haze
3:15 AM 60.8 °F 51.8 °F 72% 30.18 in 4.0 mi NE 21.9 mph 28.8 mph N/A   Haze
3:35 AM 60.8 °F 51.8 °F 72% 30.20 in 4.0 mi NE 21.9 mph 28.8 mph N/A   Haze
3:55 AM 59.0 °F 51.8 °F 77% 30.20 in 3.0 mi NNE 20.7 mph - N/A   Haze
4:15 AM 59.0 °F 51.8 °F 77% 30.19 in 3.0 mi NNE 20.7 mph - N/A   Haze
4:35 AM 59.0 °F 51.8 °F 77% 30.18 in 2.0 mi NE 23.0 mph - N/A   Haze
4:55 AM 59.0 °F 51.8 °F 77% 30.18 in 3.0 mi NE 24.2 mph 31.1 mph N/A   Haze
5:15 AM 59.0 °F 51.8 °F 77% 30.18 in 4.0 mi NE 24.2 mph - N/A   Haze
5:35 AM 59.0 °F 51.8 °F 77% 30.18 in 4.0 mi NE 24.2 mph - N/A   Haze
5:55 AM 59.0 °F 53.6 °F 82% 30.19 in 3.0 mi ENE 25.3 mph - N/A   Haze
6:15 AM 59.0 °F 51.8 °F 77% 30.20 in 3.0 mi ENE 24.2 mph - N/A   Haze
6:35 AM 59.0 °F 51.8 °F 77% 30.23 in 3.0 mi East 18.4 mph - N/A   Haze
6:55 AM 57.2 °F 51.8 °F 82% 30.21 in 0.8 mi ENE 25.3 mph - N/A   Haze
7:15 AM 57.2 °F 51.8 °F 82% 30.21 in 2.5 mi ENE 23.0 mph - N/A   Haze
7:35 AM 57.2 °F 53.6 °F 88% 30.22 in 6.0 mi ENE 20.7 mph - N/A   Haze
7:55 AM 59.0 °F 53.6 °F 82% 30.22 in 6.0 mi ENE 23.0 mph - N/A   Haze
8:15 AM 59.0 °F 53.6 °F 82% 30.22 in 7.0 mi NE 24.2 mph - N/A   Overcast
8:35 AM 59.0 °F 53.6 °F 82% 30.24 in 2.5 mi ENE 21.9 mph 27.6 mph N/A   Haze
8:55 AM 59.0 °F 53.6 °F 82% 30.25 in 4.0 mi ENE 23.0 mph - N/A   Haze
9:15 AM 59.0 °F 53.6 °F 82% 30.25 in 6.0 mi ENE 23.0 mph - N/A   Haze
9:35 AM 59.0 °F 53.6 °F 82% 30.25 in 7.0 mi ENE 20.7 mph - N/A   Overcast
9:55 AM 59.0 °F 53.6 °F 82% 30.26 in 6.0 mi ENE 20.7 mph - N/A   Haze
10:15 AM 59.0 °F 53.6 °F 82% 30.25 in 6.0 mi ENE 20.7 mph - N/A   Haze
10:35 AM 59.0 °F 53.6 °F 82% 30.26 in 7.0 mi ENE 20.7 mph - N/A   Overcast
10:55 AM 60.8 °F 53.6 °F 77% 30.25 in 7.0 mi ENE 19.6 mph - N/A   Overcast
11:15 AM 60.8 °F 53.6 °F 77% 30.24 in 5.0 mi East 21.9 mph - N/A   Haze
11:35 AM 59.0 °F 53.6 °F 82% 30.23 in 5.0 mi ENE 18.4 mph 25.3 mph N/A   Haze
11:55 AM 59.0 °F 53.6 °F 82% 30.23 in 5.0 mi ENE 21.9 mph - N/A   Haze
12:15 PM 59.0 °F 55.4 °F 88% 30.23 in 2.5 mi NE 18.4 mph - N/A   Haze
12:35 PM 59.0 °F 55.4 °F 88% 30.24 in 1.8 mi North 20.7 mph - N/A   Haze
12:55 PM 57.2 °F 55.4 °F 94% 30.23 in 0.5 mi North 20.7 mph - N/A   Overcast
1:15 PM 57.2 °F 55.4 °F 94% 30.24 in 1.0 mi North 21.9 mph - N/A   Mostly Cloudy
1:35 PM 57.2 °F 53.6 °F 88% 30.24 in 1.0 mi NNW 28.8 mph - N/A   Mostly Cloudy
1:55 PM 57.2 °F 53.6 °F 88% 30.24 in 2.5 mi NNW 33.4 mph - N/A   Mostly Cloudy
2:15 PM 55.4 °F 51.8 °F 88% 30.23 in 5.0 mi North 34.5 mph - N/A   Mostly Cloudy
2:35 PM 55.4 °F 51.8 °F 88% 30.22 in 6.0 mi North 32.2 mph 39.1 mph N/A   Overcast
2:55 PM 55.4 °F 50.0 °F 82% 30.23 in 7.0 mi North 31.1 mph - N/A   Overcast
3:15 PM 55.4 °F 50.0 °F 82% 30.23 in 6.0 mi North 33.4 mph - N/A   Haze
3:35 PM 55.4 °F 50.0 °F 82% 30.24 in 6.0 mi North 28.8 mph 40.3 mph N/A   Haze
3:55 PM 55.4 °F 48.2 °F 77% 30.24 in 5.0 mi North 33.4 mph - N/A   Haze
4:15 PM 55.4 °F 48.2 °F 77% 30.25 in 5.0 mi North 28.8 mph - N/A   Haze
4:35 PM 53.6 °F 48.2 °F 82% 30.25 in 6.0 mi North 31.1 mph 40.3 mph N/A   Haze
4:55 PM 55.4 °F 48.2 °F 77% 30.25 in 5.0 mi North 24.2 mph 32.2 mph N/A   Haze
5:15 PM 55.4 °F 50.0 °F 82% 30.23 in 5.0 mi NNE 28.8 mph - N/A   Haze
5:35 PM 55.4 °F 48.2 °F 77% 30.25 in 5.0 mi NNE 27.6 mph - N/A   Haze
5:55 PM 55.4 °F 46.4 °F 72% 30.25 in 5.0 mi NE 23.0 mph - N/A   Haze
6:15 PM 55.4 °F 46.4 °F 72% 30.24 in 1.5 mi NNE 24.2 mph 31.1 mph N/A   Haze
6:35 PM 55.4 °F 48.2 °F 77% 30.25 in 4.0 mi NNE 26.5 mph - N/A   Haze
6:55 PM 55.4 °F 48.2 °F 77% 30.24 in 6.0 mi NNE 27.6 mph - N/A   Haze
7:15 PM 55.4 °F 48.2 °F 77% 30.25 in 6.0 mi NNE 27.6 mph - N/A   Haze
7:35 PM 55.4 °F 48.2 °F 77% 30.26 in 5.0 mi NNE 27.6 mph - N/A   Haze
7:55 PM 55.4 °F 48.2 °F 77% 30.25 in 6.0 mi NNE 26.5 mph 32.2 mph N/A   Haze
8:15 PM 57.2 °F 48.2 °F 72% 30.27 in 6.0 mi NNE 23.0 mph 31.1 mph N/A   Haze
8:35 PM 57.2 °F 50.0 °F 77% 30.27 in 5.0 mi NE 25.3 mph - N/A   Haze
8:55 PM 55.4 °F 48.2 °F 77% 30.26 in 5.0 mi NE 26.5 mph 32.2 mph N/A   Haze
9:15 PM 57.2 °F 48.2 °F 72% 30.26 in 5.0 mi NE 26.5 mph - N/A   Haze
9:35 PM 57.2 °F 50.0 °F 77% 30.26 in 5.0 mi ENE 26.5 mph - N/A   Haze
9:55 PM 57.2 °F 50.0 °F 77% 30.25 in 5.0 mi NE 26.5 mph - N/A   Haze
10:15 PM 57.2 °F 48.2 °F 72% 30.26 in - ENE 24.2 mph - N/A   Overcast
10:35 PM 57.2 °F 50.0 °F 77% 30.26 in 5.0 mi ENE 25.3 mph - N/A   Haze
10:55 PM 57.2 °F 48.2 °F 72% 30.25 in 5.0 mi ENE 24.2 mph - N/A   Haze
11:15 PM 57.2 °F 48.2 °F 72% 30.24 in 6.0 mi ENE 26.5 mph - N/A   Haze
11:35 PM 57.2 °F 50.0 °F 77% 30.24 in 5.0 mi ENE 25.3 mph 33.4 mph N/A   Haze
11:55 PM 57.2 °F 50.0 °F 77% 30.24 in 5.0 mi ENE 24.2 mph - N/A   Haze